Time;durP1;ratioP1;P1;durP2;ratioP2;P2;SDS_P1;SDS_P2;PMS_P1;PMS_P2;Temp;Humidity;BMP_temperature;BMP_pressure;BME280_temperature;BME280_humidity;BME280_pressure;Samples;Min_cycle;Max_cycle;Signal;HPM_P1;HPM_P2
2022/05/27 00:01:37;;;;;;;27.17;6.12;;;;;;;;;;4390698;32;20051;-70
2022/05/27 00:04:03;;;;;;;29.15;7.57;;;;;;;;;;4389713;32;20126;-70
2022/05/27 00:06:29;;;;;;;33.20;7.37;;;;;;;;;;4390748;32;20019;-70
2022/05/27 00:08:54;;;;;;;29.73;7.57;;;;;;;;;;4391143;32;20044;-71
2022/05/27 00:11:22;;;;;;;30.92;6.65;;;;;;;;;;4377155;32;20403;-69
2022/05/27 00:13:48;;;;;;;22.58;6.22;;;;;;;;;;4390625;32;20035;-70
2022/05/27 00:16:13;;;;;;;28.05;6.85;;;;;;;;;;4390973;32;20087;-71
2022/05/27 00:18:38;;;;;;;31.33;8.10;;;;;;;;;;4378068;32;20038;-72
2022/05/27 00:21:04;;;;;;;23.35;7.00;;;;;;;;;;4391625;32;20023;-72
2022/05/27 00:23:29;;;;;;;25.20;7.35;;;;;;;;;;4381937;32;20054;-72
2022/05/27 00:25:54;;;;;;;23.23;6.62;;;;;;;;;;4375731;32;20397;-72
2022/05/27 00:28:19;;;;;;;26.52;7.00;;;;;;;;;;4375869;32;20023;-73
2022/05/27 00:30:45;;;;;;;30.65;7.45;;;;;;;;;;4376167;32;20460;-72
2022/05/27 00:33:10;;;;;;;25.35;6.95;;;;;;;;;;4375606;32;20039;-71
2022/05/27 00:35:36;;;;;;;28.35;6.62;;;;;;;;;;4361927;32;20027;-72
2022/05/27 00:40:37;;;;;;;29.90;7.12;;;;;;;;;;4336103;27;20040;-83
2022/05/27 00:43:03;;;;;;;26.23;6.68;;;;;;;;;;4334148;33;20070;-83
2022/05/27 00:45:33;;;;;;;28.92;6.82;;;;;;;;;;4331323;33;20086;-82
2022/05/27 00:47:59;;;;;;;22.00;5.87;;;;;;;;;;4332161;33;20401;-83
2022/05/27 00:50:27;;;;;;;21.65;5.68;;;;;;;;;;4330819;33;20089;-83
2022/05/27 00:52:53;;;;;;;19.17;4.97;;;;;;;;;;4336123;33;20075;-82
2022/05/27 00:55:20;;;;;;;17.10;5.10;;;;;;;;;;4345163;33;20031;-83
2022/05/27 00:57:47;;;;;;;22.30;4.82;;;;;;;;;;4346180;33;20028;-83
2022/05/27 01:00:16;;;;;;;18.00;5.30;;;;;;;;;;4346017;33;20058;-83
2022/05/27 01:02:42;;;;;;;13.77;4.10;;;;;;;;;;4332526;33;20100;-83
2022/05/27 01:05:11;;;;;;;12.55;3.85;;;;;;;;;;4346215;33;20100;-83
2022/05/27 01:07:39;;;;;;;13.68;4.45;;;;;;;;;;4346434;33;20039;-82
2022/05/27 01:10:06;;;;;;;13.55;4.85;;;;;;;;;;4346430;33;20055;-82
2022/05/27 01:12:37;;;;;;;18.80;4.30;;;;;;;;;;4345110;33;20050;-82
2022/05/27 01:15:09;;;;;;;10.43;3.80;;;;;;;;;;4347310;33;20105;-82
2022/05/27 01:18:09;;;;;;;11.57;4.37;;;;;;;;;;4346395;33;20031;-82
2022/05/27 01:20:53;;;;;;;12.82;4.65;;;;;;;;;;4346401;33;20040;-82
2022/05/27 01:23:45;;;;;;;13.02;4.72;;;;;;;;;;4346408;33;20028;-82
2022/05/27 01:26:13;;;;;;;18.27;5.10;;;;;;;;;;4346720;33;20051;-82
2022/05/27 01:29:04;;;;;;;22.25;5.28;;;;;;;;;;4345656;33;20031;-82
2022/05/27 01:31:40;;;;;;;23.25;6.50;;;;;;;;;;4346017;33;20028;-82
2022/05/27 01:34:24;;;;;;;25.20;6.00;;;;;;;;;;4346360;33;20039;-82
2022/05/27 01:36:55;;;;;;;29.23;8.30;;;;;;;;;;4345252;33;20028;-82
2022/05/27 01:39:26;;;;;;;25.40;6.70;;;;;;;;;;4341103;33;20043;-82
2022/05/27 01:41:58;;;;;;;30.35;7.35;;;;;;;;;;4345363;33;20077;-82
2022/05/27 01:44:42;;;;;;;29.17;9.27;;;;;;;;;;4345992;33;20042;-81
2022/05/27 01:47:08;;;;;;;29.98;7.80;;;;;;;;;;4345269;33;20146;-83
2022/05/27 01:50:03;;;;;;;30.35;8.02;;;;;;;;;;4345313;33;20043;-83
2022/05/27 01:52:36;;;;;;;20.42;7.90;;;;;;;;;;4338964;33;20035;-83
2022/05/27 01:55:06;;;;;;;33.65;8.70;;;;;;;;;;4345887;33;20150;-83
2022/05/27 01:57:38;;;;;;;25.58;7.90;;;;;;;;;;4346101;33;20028;-83
2022/05/27 02:00:08;;;;;;;28.75;8.77;;;;;;;;;;4346137;33;20059;-81
2022/05/27 02:02:35;;;;;;;29.77;7.43;;;;;;;;;;4345747;33;20419;-83
2022/05/27 02:05:04;;;;;;;33.42;7.20;;;;;;;;;;4344963;33;20323;-83
2022/05/27 02:07:45;;;;;;;34.20;7.80;;;;;;;;;;4348094;33;20055;-83
2022/05/27 02:10:13;;;;;;;27.60;8.07;;;;;;;;;;4348072;33;20035;-83
2022/05/27 02:12:52;;;;;;;20.83;7.20;;;;;;;;;;4348060;33;20027;-81
2022/05/27 02:15:20;;;;;;;38.50;8.75;;;;;;;;;;4348856;33;20337;-81
2022/05/27 02:18:06;;;;;;;39.53;9.57;;;;;;;;;;4348226;33;20027;-81
2022/05/27 02:20:37;;;;;;;32.13;9.02;;;;;;;;;;4349083;33;20054;-81
2022/05/27 02:23:22;;;;;;;29.15;7.45;;;;;;;;;;4347900;33;20469;-81
2022/05/27 02:25:51;;;;;;;29.20;7.05;;;;;;;;;;4334429;33;20031;-81
2022/05/27 02:28:25;;;;;;;31.45;7.72;;;;;;;;;;4347599;33;20374;-82
2022/05/27 02:30:54;;;;;;;22.33;7.45;;;;;;;;;;4348507;33;20028;-82
2022/05/27 02:36:10;;;;;;;32.88;9.43;;;;;;;;;;4348803;33;20058;-81
2022/05/27 02:38:36;;;;;;;27.90;8.85;;;;;;;;;;4333884;33;20125;-81
2022/05/27 02:41:10;;;;;;;35.58;9.05;;;;;;;;;;4347352;33;20059;-81
2022/05/27 02:43:44;;;;;;;28.55;7.90;;;;;;;;;;4348354;33;20032;-81
2022/05/27 02:46:19;;;;;;;31.25;8.85;;;;;;;;;;4347542;33;20027;-81
2022/05/27 02:48:55;;;;;;;28.23;7.82;;;;;;;;;;4347310;33;20020;-81
2022/05/27 02:54:33;;;;;;;24.35;8.07;;;;;;;;;;4330924;33;20067;-81
2022/05/27 02:57:24;;;;;;;30.58;8.32;;;;;;;;;;4348014;33;20058;-81
2022/05/27 02:59:50;;;;;;;29.37;8.10;;;;;;;;;;4347394;33;20027;-81
2022/05/27 03:02:19;;;;;;;25.62;7.72;;;;;;;;;;4347963;33;20024;-81
2022/05/27 03:04:50;;;;;;;29.02;7.90;;;;;;;;;;4347332;33;20430;-81
2022/05/27 03:07:21;;;;;;;31.67;7.62;;;;;;;;;;4348557;33;20436;-81
2022/05/27 03:10:13;;;;;;;28.15;7.00;;;;;;;;;;4347264;33;20406;-81
2022/05/27 03:13:13;;;;;;;;;;;;;;;;;;;;;
2022/05/27 03:19:16;;;;;;;22.95;7.00;;;;;;;;;;4300962;33;20046;-81
2022/05/27 03:22:04;;;;;;;21.50;6.68;;;;;;;;;;4301169;33;20041;-81
2022/05/27 03:24:41;;;;;;;20.33;5.82;;;;;;;;;;4312434;33;20031;-81
2022/05/27 03:27:21;;;;;;;24.42;7.28;;;;;;;;;;4335386;33;20094;-81
2022/05/27 03:30:15;;;;;;;19.73;7.28;;;;;;;;;;4361141;32;20035;-80
2022/05/27 03:33:00;;;;;;;24.95;6.45;;;;;;;;;;4354974;33;20345;-81
2022/05/27 03:35:47;;;;;;;32.38;7.30;;;;;;;;;;4355864;32;20426;-81
2022/05/27 03:38:23;;;;;;;28.80;6.62;;;;;;;;;;4357745;32;20335;-81
2022/05/27 03:40:55;;;;;;;14.60;6.80;;;;;;;;;;4334125;33;20040;-81
2022/05/27 03:43:36;;;;;;;;;;;;;;;;;;;;;
2022/05/27 03:46:28;;;;;;;21.77;6.35;;;;;;;;;;4332200;33;20028;-81
2022/05/27 03:48:56;;;;;;;24.50;6.30;;;;;;;;;;4332314;33;20081;-81
2022/05/27 03:51:23;;;;;;;23.73;6.90;;;;;;;;;;4332156;33;20028;-81
2022/05/27 03:56:42;;;;;;;18.50;5.60;;;;;;;;;;4331756;33;20153;-81
2022/05/27 03:59:09;;;;;;;18.08;6.12;;;;;;;;;;4318067;33;20087;-81
2022/05/27 04:01:35;;;;;;;16.08;5.70;;;;;;;;;;4332070;33;20054;-81
2022/05/27 04:04:03;;;;;;;14.25;4.62;;;;;;;;;;4332039;33;20408;-80
2022/05/27 04:06:29;;;;;;;22.67;5.45;;;;;;;;;;4332186;33;20422;-80
2022/05/27 04:08:55;;;;;;;12.37;3.90;;;;;;;;;;4332263;33;20027;-80
2022/05/27 04:11:24;;;;;;;11.27;4.10;;;;;;;;;;4331976;33;20369;-81
2022/05/27 04:13:49;;;;;;;19.67;4.62;;;;;;;;;;4331451;33;20138;-81
2022/05/27 04:16:17;;;;;;;20.98;4.55;;;;;;;;;;4331293;33;20036;-81
2022/05/27 04:18:46;;;;;;;17.45;3.80;;;;;;;;;;4331197;33;20076;-82
2022/05/27 04:21:11;;;;;;;17.95;3.92;;;;;;;;;;4331276;33;20031;-81
2022/05/27 04:24:04;;;;;;;7.53;3.25;;;;;;;;;;4332176;33;20408;-80
2022/05/27 04:39:14;;;;;;;16.73;3.30;;;;;;;;;;4257621;33;20478;-80
2022/05/27 04:45:20;;;;;;;16.30;3.25;;;;;;;;;;4257503;33;20107;-81
2022/05/27 04:50:33;;;;;;;14.87;3.90;;;;;;;;;;4332139;33;20162;-78
2022/05/27 04:52:58;;;;;;;11.10;3.85;;;;;;;;;;4331581;33;20415;-80
2022/05/27 04:55:34;;;;;;;11.32;3.70;;;;;;;;;;4331124;33;20028;-79
2022/05/27 04:58:20;;;;;;;20.12;4.35;;;;;;;;;;4331780;33;20024;-80
2022/05/27 05:07:05;;;;;;;17.55;4.35;;;;;;;;;;4329194;33;20079;-80
2022/05/27 05:16:05;;;;;;;13.05;3.42;;;;;;;;;;4314430;33;20115;-80
2022/05/27 05:31:16;;;;;;;11.55;3.72;;;;;;;;;;4271080;33;20048;-80
2022/05/27 05:33:50;;;;;;;12.95;3.42;;;;;;;;;;4281452;33;20036;-80
2022/05/27 05:36:18;;;;;;;12.07;2.90;;;;;;;;;;4286465;33;20047;-81
2022/05/27 05:42:10;;;;;;;13.05;3.10;;;;;;;;;;4286759;33;20057;-79
2022/05/27 05:44:38;;;;;;;17.00;3.55;;;;;;;;;;4299837;33;20031;-81
2022/05/27 05:47:03;;;;;;;9.80;3.37;;;;;;;;;;4333928;33;20069;-80
2022/05/27 05:49:38;;;;;;;16.20;4.32;;;;;;;;;;4320410;33;20023;-81
2022/05/27 05:52:13;;;;;;;21.15;3.85;;;;;;;;;;4333970;33;20366;-81
2022/05/27 05:54:54;;;;;;;;;;;;;;;;;;;;;
2022/05/27 05:57:20;;;;;;;10.68;3.20;;;;;;;;;;4333830;33;20051;-80
2022/05/27 05:59:45;;;;;;;7.55;3.00;;;;;;;;;;4333526;33;20028;-77
2022/05/27 06:02:10;;;;;;;13.62;3.35;;;;;;;;;;4333389;33;20025;-81
2022/05/27 06:04:36;;;;;;;10.98;3.58;;;;;;;;;;4319679;33;20032;-79
2022/05/27 06:07:11;;;;;;;;;;;;;;;;;;;;;
2022/05/27 06:09:45;;;;;;;11.80;3.62;;;;;;;;;;4324847;33;20032;-80
2022/05/27 06:12:10;;;;;;;10.77;3.10;;;;;;;;;;4343828;33;20095;-80
2022/05/27 06:14:36;;;;;;;15.65;3.55;;;;;;;;;;4347629;33;20027;-82
2022/05/27 06:17:01;;;;;;;13.85;3.35;;;;;;;;;;4348559;33;20070;-80
2022/05/27 06:19:27;;;;;;;17.60;2.92;;;;;;;;;;4334673;33;20070;-79
2022/05/27 06:34:23;;;;;;;12.05;3.45;;;;;;;;;;4332395;33;20046;-79
2022/05/27 06:36:21;;;;;;;13.23;3.27;;;;;;;;;;4347778;33;20042;-80
2022/05/27 06:38:49;;;;;;;19.48;3.17;;;;;;;;;;4346743;33;20039;-80
2022/05/27 06:41:14;;;;;;;12.63;3.70;;;;;;;;;;4347433;33;20058;-79
2022/05/27 06:43:39;;;;;;;11.27;2.83;;;;;;;;;;4346838;33;20380;-79
2022/05/27 06:46:05;;;;;;;10.82;3.10;;;;;;;;;;4347623;33;20020;-79
2022/05/27 06:48:51;;;;;;;14.98;3.25;;;;;;;;;;4347956;33;20044;-81
2022/05/27 06:51:18;;;;;;;11.07;3.17;;;;;;;;;;4334484;33;20385;-79
2022/05/27 06:53:44;;;;;;;16.58;3.22;;;;;;;;;;4347244;33;20074;-79
2022/05/27 06:56:09;;;;;;;12.07;3.08;;;;;;;;;;4347519;33;20024;-77
2022/05/27 06:58:35;;;;;;;15.98;3.20;;;;;;;;;;4347685;33;20323;-80
2022/05/27 07:01:00;;;;;;;15.73;4.45;;;;;;;;;;4347422;33;20436;-79
2022/05/27 07:03:26;;;;;;;9.88;3.40;;;;;;;;;;4348107;33;20101;-80
2022/05/27 07:05:52;;;;;;;16.37;4.35;;;;;;;;;;4348014;33;20398;-81
2022/05/27 07:08:17;;;;;;;11.20;3.28;;;;;;;;;;4346919;33;20055;-76
2022/05/27 07:10:43;;;;;;;13.93;3.10;;;;;;;;;;4347832;33;20445;-80
2022/05/27 07:13:13;;;;;;;12.45;2.90;;;;;;;;;;4347494;33;20369;-79
2022/05/27 07:15:38;;;;;;;14.05;3.42;;;;;;;;;;4347851;33;20020;-79
2022/05/27 07:18:04;;;;;;;9.30;3.03;;;;;;;;;;4346970;33;20028;-78
2022/05/27 07:20:30;;;;;;;15.73;4.40;;;;;;;;;;4347080;33;20102;-78
2022/05/27 07:22:55;;;;;;;9.63;3.17;;;;;;;;;;4346442;33;20040;-78
2022/05/27 07:25:20;;;;;;;12.15;3.58;;;;;;;;;;4347910;33;20089;-79
2022/05/27 07:27:46;;;;;;;14.02;5.00;;;;;;;;;;4347406;33;20073;-76
2022/05/27 07:30:14;;;;;;;13.45;3.42;;;;;;;;;;4346576;33;20023;-75
2022/05/27 07:32:40;;;;;;;13.23;3.65;;;;;;;;;;4346888;33;20024;-78
2022/05/27 07:35:06;;;;;;;16.87;5.93;;;;;;;;;;4348338;33;20086;-78
2022/05/27 07:37:31;;;;;;;13.13;3.75;;;;;;;;;;4346618;33;20028;-76
2022/05/27 07:42:48;;;;;;;15.73;3.78;;;;;;;;;;4346298;32;20090;-79
2022/05/27 07:45:33;;;;;;;10.70;3.25;;;;;;;;;;4346352;33;20429;-78
2022/05/27 07:51:46;;;;;;;15.82;3.85;;;;;;;;;;4315311;33;20082;-79
2022/05/27 07:54:11;;;;;;;16.05;4.00;;;;;;;;;;4302490;33;20101;-79
2022/05/27 07:56:40;;;;;;;12.15;3.83;;;;;;;;;;4330832;33;20406;-79
2022/05/27 07:59:16;;;;;;;14.02;3.00;;;;;;;;;;4346458;33;20107;-80
2022/05/27 08:01:42;;;;;;;12.75;4.03;;;;;;;;;;4346831;33;20422;-79
2022/05/27 08:04:11;;;;;;;13.23;3.47;;;;;;;;;;4333160;33;20061;-77
2022/05/27 08:06:36;;;;;;;17.20;3.85;;;;;;;;;;4333074;33;20023;-79
2022/05/27 08:09:02;;;;;;;12.80;2.87;;;;;;;;;;4347188;33;20094;-79
2022/05/27 08:11:27;;;;;;;11.73;3.58;;;;;;;;;;4346397;33;20420;-78
2022/05/27 08:13:55;;;;;;;11.80;3.70;;;;;;;;;;4345822;33;20075;-79
2022/05/27 08:16:21;;;;;;;18.30;4.47;;;;;;;;;;4346348;33;20027;-78
2022/05/27 08:19:07;;;;;;;20.83;3.85;;;;;;;;;;4346802;32;20155;-78
2022/05/27 08:21:37;;;;;;;15.00;3.92;;;;;;;;;;4332444;33;20040;-77
2022/05/27 08:24:05;;;;;;;17.45;3.75;;;;;;;;;;4346787;33;20047;-81
2022/05/27 08:26:30;;;;;;;11.80;3.83;;;;;;;;;;4346012;33;20098;-75
2022/05/27 08:31:47;;;;;;;16.52;3.47;;;;;;;;;;4315654;33;20050;-78
2022/05/27 08:39:49;;;;;;;13.80;3.37;;;;;;;;;;4346958;33;20090;-77
2022/05/27 08:42:33;;;;;;;10.50;3.12;;;;;;;;;;4345653;32;20063;-79
2022/05/27 08:45:01;;;;;;;14.02;3.20;;;;;;;;;;4345219;33;20350;-79
2022/05/27 08:47:59;;;;;;;10.57;2.85;;;;;;;;;;4346031;33;20094;-78
2022/05/27 08:50:39;;;;;;;10.95;3.55;;;;;;;;;;4344669;33;20027;-78
2022/05/27 08:53:14;;;;;;;16.75;3.62;;;;;;;;;;4332513;33;20028;-78
2022/05/27 09:01:34;;;;;;;21.58;4.43;;;;;;;;;;4346069;33;20057;-78
2022/05/27 09:04:09;;;;;;;13.20;4.03;;;;;;;;;;4345719;33;20052;-77
2022/05/27 09:06:37;;;;;;;13.23;3.58;;;;;;;;;;4345152;33;20040;-78
2022/05/27 09:09:05;;;;;;;18.27;3.90;;;;;;;;;;4345158;33;20074;-76
2022/05/27 09:11:40;;;;;;;18.52;3.65;;;;;;;;;;4345550;33;20027;-79
2022/05/27 09:14:05;;;;;;;15.18;4.37;;;;;;;;;;4345700;33;20032;-77
2022/05/27 09:16:33;;;;;;;17.27;4.10;;;;;;;;;;4345041;33;20020;-78
2022/05/27 09:19:05;;;;;;;15.70;3.65;;;;;;;;;;4345364;33;20402;-79
2022/05/27 09:21:36;;;;;;;19.25;4.53;;;;;;;;;;4345721;33;20078;-79
2022/05/27 09:24:12;;;;;;;17.67;4.60;;;;;;;;;;4345292;33;20028;-76
2022/05/27 09:26:41;;;;;;;13.82;3.33;;;;;;;;;;4345550;33;20065;-76
2022/05/27 09:29:19;;;;;;;18.80;4.53;;;;;;;;;;4345455;33;20020;-78
2022/05/27 09:31:52;;;;;;;18.70;4.35;;;;;;;;;;4331488;33;20054;-78
2022/05/27 09:34:17;;;;;;;21.42;4.45;;;;;;;;;;4346035;33;20078;-78
2022/05/27 09:36:44;;;;;;;18.37;4.53;;;;;;;;;;4345033;33;20051;-77
2022/05/27 09:39:11;;;;;;;17.35;5.60;;;;;;;;;;4346491;33;20059;-75
2022/05/27 09:41:51;;;;;;;15.98;4.07;;;;;;;;;;4345172;33;20468;-77
2022/05/27 09:44:23;;;;;;;14.57;4.47;;;;;;;;;;4345342;33;20082;-73
2022/05/27 09:46:51;;;;;;;21.23;3.92;;;;;;;;;;4345409;33;20028;-79
2022/05/27 09:49:17;;;;;;;16.15;3.92;;;;;;;;;;4344133;33;20054;-77
2022/05/27 09:51:42;;;;;;;16.12;3.95;;;;;;;;;;4345331;33;20078;-76
2022/05/27 09:54:17;;;;;;;16.30;3.95;;;;;;;;;;4345460;33;20089;-77
2022/05/27 09:56:54;;;;;;;14.75;4.03;;;;;;;;;;4345009;33;20024;-80
2022/05/27 09:59:25;;;;;;;9.23;3.90;;;;;;;;;;4345507;33;20052;-80
2022/05/27 10:01:51;;;;;;;21.70;4.00;;;;;;;;;;4344427;33;20027;-76
2022/05/27 10:04:16;;;;;;;18.52;4.22;;;;;;;;;;4344880;33;20436;-75
2022/05/27 10:07:03;;;;;;;17.83;4.85;;;;;;;;;;4344694;33;20050;-78
2022/05/27 10:09:34;;;;;;;20.25;4.32;;;;;;;;;;4345800;33;20405;-74
2022/05/27 10:12:00;;;;;;;15.20;3.60;;;;;;;;;;4345323;33;20401;-78
2022/05/27 10:14:29;;;;;;;19.35;4.50;;;;;;;;;;4344575;33;20023;-76
2022/05/27 10:17:14;;;;;;;17.30;4.12;;;;;;;;;;4344716;33;20380;-76
2022/05/27 10:19:43;;;;;;;17.30;4.53;;;;;;;;;;4346131;33;20402;-76
2022/05/27 10:22:20;;;;;;;24.42;5.65;;;;;;;;;;4345064;33;20058;-78
2022/05/27 10:24:56;;;;;;;17.27;4.12;;;;;;;;;;4345796;33;20028;-78
2022/05/27 10:27:26;;;;;;;16.50;4.18;;;;;;;;;;4346868;33;20046;-78
2022/05/27 10:29:56;;;;;;;20.88;4.70;;;;;;;;;;4347146;33;20075;-76
2022/05/27 10:32:26;;;;;;;16.60;4.35;;;;;;;;;;4347070;33;20429;-74
2022/05/27 10:34:51;;;;;;;17.65;4.60;;;;;;;;;;4347950;33;20023;-79
2022/05/27 10:37:28;;;;;;;23.50;5.32;;;;;;;;;;4334093;33;20036;-77
2022/05/27 10:40:12;;;;;;;18.62;4.12;;;;;;;;;;4346886;33;20062;-78
2022/05/27 10:42:56;;;;;;;18.30;4.62;;;;;;;;;;4347590;33;20032;-78
2022/05/27 10:45:29;;;;;;;19.10;4.00;;;;;;;;;;4348853;33;20425;-77
2022/05/27 10:48:11;;;;;;;18.48;4.60;;;;;;;;;;4348194;33;20050;-78
2022/05/27 10:50:40;;;;;;;17.67;4.22;;;;;;;;;;4347010;33;20422;-78
2022/05/27 10:53:21;;;;;;;11.63;3.70;;;;;;;;;;4346965;33;20035;-78
2022/05/27 10:55:47;;;;;;;18.73;4.20;;;;;;;;;;4347066;33;20073;-79
2022/05/27 11:04:25;;;;;;;16.58;4.22;;;;;;;;;;4348467;32;20094;-79
2022/05/27 11:07:05;;;;;;;15.05;4.03;;;;;;;;;;4347431;33;20035;-80
2022/05/27 11:09:35;;;;;;;18.30;3.65;;;;;;;;;;4347153;33;20019;-78
2022/05/27 11:12:20;;;;;;;15.10;4.70;;;;;;;;;;4347098;33;20046;-79
2022/05/27 11:17:57;;;;;;;13.18;4.85;;;;;;;;;;4347340;33;20054;-77
2022/05/27 11:20:33;;;;;;;12.82;3.62;;;;;;;;;;4346629;33;20032;-78
2022/05/27 11:23:22;;;;;;;11.85;3.35;;;;;;;;;;4347134;33;20047;-78
2022/05/27 11:26:05;;;;;;;13.07;3.50;;;;;;;;;;4347408;33;20071;-75
2022/05/27 11:28:44;;;;;;;17.75;3.80;;;;;;;;;;4346641;33;20366;-79
2022/05/27 11:31:25;;;;;;;10.85;3.65;;;;;;;;;;4347359;33;20039;-79
2022/05/27 11:33:59;;;;;;;11.12;3.42;;;;;;;;;;4346475;33;20058;-78
2022/05/27 11:36:24;;;;;;;9.75;2.75;;;;;;;;;;4346312;33;20408;-78
2022/05/27 11:39:00;;;;;;;11.00;3.67;;;;;;;;;;4346207;33;20036;-79
2022/05/27 11:41:27;;;;;;;;;;;;;;;;;;4346823;33;20058;-79
2022/05/27 11:44:11;;;;;;;11.18;3.05;;;;;;;;;;4346481;33;19991;-80
2022/05/27 11:46:56;;;;;;;12.57;3.10;;;;;;;;;;4346502;33;20058;-78
2022/05/27 11:49:40;;;;;;;10.90;3.65;;;;;;;;;;4348034;33;20167;-80
2022/05/27 11:52:18;;;;;;;16.92;3.37;;;;;;;;;;4345760;33;20032;-78
2022/05/27 11:54:46;;;;;;;16.45;3.10;;;;;;;;;;4346789;33;20063;-80
2022/05/27 11:57:24;;;;;;;13.32;3.30;;;;;;;;;;4333454;33;20061;-76
2022/05/27 11:59:52;;;;;;;12.40;3.22;;;;;;;;;;4346551;33;20406;-77
2022/05/27 12:02:27;;;;;;;14.73;3.60;;;;;;;;;;4346189;33;20032;-79
2022/05/27 12:04:55;;;;;;;15.75;3.67;;;;;;;;;;4347090;33;20050;-79
2022/05/27 12:07:20;;;;;;;11.07;2.80;;;;;;;;;;4345873;33;20057;-79
2022/05/27 12:09:51;;;;;;;13.48;3.53;;;;;;;;;;4346829;33;20024;-74
2022/05/27 12:12:22;;;;;;;9.70;3.12;;;;;;;;;;4344577;33;20054;-78
2022/05/27 12:15:24;;;;;;;9.65;3.12;;;;;;;;;;4346400;33;20028;-80
2022/05/27 12:17:50;;;;;;;11.73;4.22;;;;;;;;;;4302471;33;20429;-78
2022/05/27 12:20:18;;;;;;;13.52;4.07;;;;;;;;;;4326301;33;20094;-79
2022/05/27 12:22:52;;;;;;;9.77;3.08;;;;;;;;;;4346038;33;20134;-80
2022/05/27 12:25:26;;;;;;;12.13;3.40;;;;;;;;;;4346184;33;20028;-79
2022/05/27 12:27:53;;;;;;;10.90;3.00;;;;;;;;;;4345028;33;20095;-79
2022/05/27 12:30:19;;;;;;;12.37;2.90;;;;;;;;;;4345964;33;20032;-78
2022/05/27 12:32:45;;;;;;;16.40;4.07;;;;;;;;;;4332178;33;20050;-80
2022/05/27 12:35:22;;;;;;;16.10;3.70;;;;;;;;;;4345900;33;20073;-80
2022/05/27 12:37:56;;;;;;;13.65;3.80;;;;;;;;;;4345607;33;20019;-80
2022/05/27 12:40:25;;;;;;;11.63;3.35;;;;;;;;;;4345697;33;20031;-73
2022/05/27 12:42:53;;;;;;;9.93;2.78;;;;;;;;;;4345407;33;20065;-79
2022/05/27 12:45:18;;;;;;;11.05;3.40;;;;;;;;;;4345545;33;20398;-79
2022/05/27 12:47:47;;;;;;;9.20;3.50;;;;;;;;;;4345760;33;20070;-78
2022/05/27 12:50:21;;;;;;;14.50;3.50;;;;;;;;;;4346040;33;20043;-80
2022/05/27 12:52:49;;;;;;;12.32;3.20;;;;;;;;;;4346467;33;20081;-76
2022/05/27 12:55:41;;;;;;;10.57;3.00;;;;;;;;;;4345943;33;20090;-79
2022/05/27 13:04:05;;;;;;;12.75;3.10;;;;;;;;;;4321052;33;20089;-73
2022/05/27 13:06:30;;;;;;;16.52;4.18;;;;;;;;;;4345234;33;20039;-78
2022/05/27 13:08:57;;;;;;;13.75;3.28;;;;;;;;;;4345102;33;20032;-77
2022/05/27 13:11:31;;;;;;;16.33;3.50;;;;;;;;;;4346220;33;20355;-77
2022/05/27 13:14:19;;;;;;;13.85;3.85;;;;;;;;;;4346353;33;20020;-76
2022/05/27 13:17:23;;;;;;;13.30;3.22;;;;;;;;;;4345506;33;20155;-75
2022/05/27 13:19:52;;;;;;;16.15;3.58;;;;;;;;;;4346302;33;20082;-77
2022/05/27 13:22:34;;;;;;;13.75;3.30;;;;;;;;;;4345511;33;20066;-78
2022/05/27 13:25:24;;;;;;;11.20;2.90;;;;;;;;;;4345259;33;20377;-79
2022/05/27 13:27:59;;;;;;;12.55;3.70;;;;;;;;;;4345494;33;20035;-79
2022/05/27 13:30:45;;;;;;;13.23;3.65;;;;;;;;;;4345393;33;20016;-76
2022/05/27 13:33:11;;;;;;;13.32;3.60;;;;;;;;;;4339955;33;20402;-79
2022/05/27 13:35:41;;;;;;;14.25;2.72;;;;;;;;;;4345474;33;20062;-79
2022/05/27 13:38:15;;;;;;;14.20;3.87;;;;;;;;;;4331234;33;20032;-75
2022/05/27 13:40:41;;;;;;;14.85;3.58;;;;;;;;;;4345972;33;20055;-76
2022/05/27 13:43:09;;;;;;;12.45;3.42;;;;;;;;;;4331525;33;20406;-79
2022/05/27 13:45:55;;;;;;;9.93;3.22;;;;;;;;;;4345443;33;20027;-79
2022/05/27 13:48:39;;;;;;;11.07;3.80;;;;;;;;;;4345702;33;20456;-79
2022/05/27 13:51:09;;;;;;;20.92;4.95;;;;;;;;;;4345999;33;20032;-79
2022/05/27 13:53:35;;;;;;;15.00;3.65;;;;;;;;;;4345385;33;20229;-79
2022/05/27 13:56:43;;;;;;;14.73;3.35;;;;;;;;;;4343847;33;20046;-78
2022/05/27 13:59:19;;;;;;;12.80;2.95;;;;;;;;;;4344659;33;20081;-79
2022/05/27 14:01:55;;;;;;;15.63;3.62;;;;;;;;;;4346503;33;20465;-80
2022/05/27 14:04:20;;;;;;;11.65;3.55;;;;;;;;;;4349544;33;20330;-77
2022/05/27 14:06:46;;;;;;;11.25;3.30;;;;;;;;;;4347544;33;20027;-78
2022/05/27 14:09:16;;;;;;;13.43;3.20;;;;;;;;;;4347929;33;20027;-77
2022/05/27 14:11:49;;;;;;;10.55;2.65;;;;;;;;;;4348690;33;20078;-78
2022/05/27 14:14:15;;;;;;;13.48;3.92;;;;;;;;;;4347884;33;20052;-79
2022/05/27 14:16:42;;;;;;;13.98;4.57;;;;;;;;;;4347701;33;20027;-79
2022/05/27 14:19:12;;;;;;;11.38;3.35;;;;;;;;;;4348389;33;20093;-78
2022/05/27 14:24:56;;;;;;;10.93;2.85;;;;;;;;;;4316397;33;20051;-80
2022/05/27 14:27:23;;;;;;;16.77;4.05;;;;;;;;;;4303890;33;20450;-78
2022/05/27 14:29:56;;;;;;;11.32;3.75;;;;;;;;;;4338256;33;20114;-79
2022/05/27 14:32:25;;;;;;;10.68;3.72;;;;;;;;;;4347853;33;20086;-80
2022/05/27 14:34:54;;;;;;;10.30;2.87;;;;;;;;;;4347240;33;20023;-76
2022/05/27 14:37:31;;;;;;;15.32;3.85;;;;;;;;;;4347390;33;20415;-76
2022/05/27 14:39:59;;;;;;;;;;;;;;;;;;4347850;33;20086;-80
2022/05/27 14:42:24;;;;;;;18.83;4.15;;;;;;;;;;4347597;32;19990;-80
2022/05/27 14:44:50;;;;;;;13.35;3.45;;;;;;;;;;4347361;33;20389;-78
2022/05/27 14:47:27;;;;;;;14.85;3.20;;;;;;;;;;4347660;33;20387;-78
2022/05/27 14:49:56;;;;;;;12.73;3.50;;;;;;;;;;4347303;33;20426;-77
2022/05/27 14:52:39;;;;;;;14.43;3.67;;;;;;;;;;4347009;33;20402;-78
2022/05/27 14:55:04;;;;;;;8.73;3.22;;;;;;;;;;4347811;33;20089;-78
2022/05/27 14:57:38;;;;;;;15.50;3.92;;;;;;;;;;4346738;33;20028;-77
2022/05/27 15:00:21;;;;;;;10.32;3.83;;;;;;;;;;4347352;33;20063;-79
2022/05/27 15:03:24;;;;;;;14.30;3.87;;;;;;;;;;4333810;33;20093;-77
2022/05/27 15:06:06;;;;;;;12.77;3.33;;;;;;;;;;4345988;33;20023;-80
2022/05/27 15:08:32;;;;;;;9.75;3.00;;;;;;;;;;4348630;33;20053;-79
2022/05/27 15:11:06;;;;;;;15.52;3.47;;;;;;;;;;4347923;33;20074;-80
2022/05/27 15:13:54;;;;;;;10.48;3.20;;;;;;;;;;4346744;33;20066;-77
2022/05/27 15:16:22;;;;;;;10.40;2.85;;;;;;;;;;4348698;33;20023;-79
2022/05/27 15:19:00;;;;;;;10.20;2.97;;;;;;;;;;4348225;33;20050;-79
2022/05/27 15:21:32;;;;;;;8.02;2.95;;;;;;;;;;4334017;33;20390;-77
2022/05/27 15:24:01;;;;;;;10.13;3.30;;;;;;;;;;4349313;33;20082;-79
2022/05/27 15:34:59;;;;;;;9.60;2.60;;;;;;;;;;4350258;33;20082;-77
2022/05/27 15:37:27;;;;;;;7.37;2.67;;;;;;;;;;4350961;33;20027;-76
2022/05/27 15:39:53;;;;;;;12.70;3.40;;;;;;;;;;4350516;33;20093;-78
2022/05/27 15:42:26;;;;;;;7.70;2.65;;;;;;;;;;4350651;33;20036;-79
2022/05/27 15:44:53;;;;;;;10.40;2.75;;;;;;;;;;4354326;33;20388;-78
2022/05/27 15:47:19;;;;;;;11.85;2.65;;;;;;;;;;4366463;32;20094;-79
2022/05/27 15:49:54;;;;;;;8.30;2.55;;;;;;;;;;4351284;33;20088;-78
2022/05/27 15:52:20;;;;;;;17.40;3.45;;;;;;;;;;4364542;32;20097;-78
2022/05/27 15:54:48;;;;;;;10.55;3.12;;;;;;;;;;4363150;32;20019;-78
2022/05/27 15:57:13;;;;;;;14.07;3.28;;;;;;;;;;4361187;32;20031;-77
2022/05/27 15:59:38;;;;;;;11.88;3.47;;;;;;;;;;4355507;32;20031;-79
2022/05/27 16:02:06;;;;;;;13.80;2.80;;;;;;;;;;4347036;33;20054;-79
2022/05/27 16:04:35;;;;;;;11.70;2.50;;;;;;;;;;4347239;33;20073;-78
2022/05/27 16:07:01;;;;;;;8.75;2.58;;;;;;;;;;4346279;33;20054;-78
2022/05/27 16:09:45;;;;;;;10.85;2.87;;;;;;;;;;4332900;33;20089;-76
2022/05/27 16:12:19;;;;;;;9.32;2.70;;;;;;;;;;4347063;33;20096;-78
2022/05/27 16:14:50;;;;;;;13.05;3.80;;;;;;;;;;4347268;33;20078;-79
2022/05/27 16:20:00;;;;;;;14.80;3.80;;;;;;;;;;4346378;33;20042;-78
2022/05/27 16:22:28;;;;;;;13.43;4.25;;;;;;;;;;4346380;33;20373;-78
2022/05/27 16:27:59;;;;;;;12.85;3.70;;;;;;;;;;4315172;33;20059;-78
2022/05/27 16:30:25;;;;;;;12.95;2.92;;;;;;;;;;4345642;33;20116;-77
2022/05/27 16:32:54;;;;;;;11.90;3.22;;;;;;;;;;4346620;33;20027;-76
2022/05/27 16:35:20;;;;;;;11.98;4.05;;;;;;;;;;4346537;33;20031;-79
2022/05/27 16:37:54;;;;;;;9.88;3.20;;;;;;;;;;4345830;33;20085;-78
2022/05/27 16:40:51;;;;;;;9.45;3.28;;;;;;;;;;4346242;33;20099;-79
2022/05/27 16:43:16;;;;;;;12.45;3.67;;;;;;;;;;4332415;33;20078;-78
2022/05/27 16:45:41;;;;;;;9.57;3.58;;;;;;;;;;4346710;33;20044;-79
2022/05/27 16:48:26;;;;;;;9.77;3.22;;;;;;;;;;4345789;33;20069;-78
2022/05/27 16:50:52;;;;;;;12.68;3.53;;;;;;;;;;4339313;33;20036;-78
2022/05/27 16:53:20;;;;;;;14.02;3.12;;;;;;;;;;4346090;33;20380;-79
2022/05/27 16:55:45;;;;;;;7.47;2.78;;;;;;;;;;4345980;33;20031;-78
2022/05/27 16:58:20;;;;;;;11.55;4.22;;;;;;;;;;4345602;33;20024;-79
2022/05/27 17:00:48;;;;;;;13.75;3.80;;;;;;;;;;4346382;33;20069;-77
2022/05/27 17:03:39;;;;;;;16.20;3.60;;;;;;;;;;4346044;33;20074;-79
2022/05/27 17:06:40;;;;;;;7.68;3.12;;;;;;;;;;4314387;33;20438;-78
2022/05/27 17:18:41;;;;;;;;;;;;;;;;;;4213948;34;20579;-78
2022/05/27 17:21:10;;;;;;;11.20;3.80;;;;;;;;;;4244749;33;19948;-78
2022/05/27 17:33:31;;;;;;;13.73;4.03;;;;;;;;;;4228438;34;20079;-78